Latest Weather Observations for Brisbane

IDQ60901

Issued at 9:51 am EST Monday 20 November 2017 (issued every 10 minutes, with the page automatically refreshed every 10 minutes)

About weather observations | Map of Brisbane area stations | Latest observations for Brisbane area | Other Formats
Station Details ID: 040913 Name: BRISBANE Lat: -27.48 Lon: 153.04 Height: 8.13 m
Data from the previous 72 hours. | See also: Recent months at Brisbane
Date/Time
EST
Temp
°C
App
Temp
°C
Dew
Point
°C
Rel
Hum
%
Delta-T
°C
Wind Press
QNH
hPa
Press
MSL
hPa
Rain since
9am
mm
Dir  Spd
km/h
Gust
km/h
Spd
kts
Gust
kts
20/09:30am 23.9 22.5 13.4 51 6.1 SE 13 24 7 13 1019.9 1019.9 0.0
20/09:00am 23.6 22.8 14.0 55 5.6 SSE 11 22 6 12 1019.8 1019.8 5.8
20/08:30am 22.6 23.5 15.2 63 4.4 SSE 4 7 2 4 1019.8 1019.8 5.8
20/08:00am 21.3 23.0 16.3 73 3.0 SW 2 7 1 4 1020.0 1020.0 5.8
20/07:30am 19.5 20.6 14.7 74 2.8 SSE 2 4 1 2 1020.1 1020.1 5.8
20/07:00am 19.1 20.0 15.2 78 2.3 S 4 6 2 3 1019.7 1019.7 5.8
20/06:30am 18.5 19.4 15.2 81 1.9 SW 4 7 2 4 1019.2 1019.2 5.8
20/06:00am 18.0 18.9 15.1 83 1.7 SW 4 7 2 4 1019.0 1019.0 5.8
20/05:30am 17.1 18.3 14.9 87 1.3 SW 2 7 1 4 1018.8 1018.8 5.8
20/05:00am 17.2 18.4 14.8 86 1.4 SSW 2 4 1 2 1018.5 1018.5 5.8
20/04:30am 17.1 18.1 14.4 84 1.5 SSW 2 6 1 3 1018.2 1018.2 5.8
20/04:00am 17.3 18.3 14.4 83 1.7 WSW 2 6 1 3 1017.9 1017.9 5.8
20/03:30am 17.2 17.2 14.3 83 1.7 S 7 13 4 7 1018.0 1018.0 5.8
20/03:00am 16.9 17.6 14.5 86 1.4 SSW 4 11 2 6 1017.9 1017.9 5.8
20/02:30am 16.9 17.6 14.4 85 1.4 SW 4 7 2 4 1018.0 1018.0 5.8
20/02:00am 17.1 17.8 14.4 84 1.5 SSW 4 7 2 4 1017.8 1017.8 5.8
20/01:30am 17.1 17.8 14.6 85 1.4 SW 4 6 2 3 1018.1 1018.1 5.8
20/01:00am 17.2 18.1 14.1 82 1.8 SW 2 4 1 2 1018.2 1018.2 5.8
20/12:30am 17.8 18.4 14.3 80 2.0 SSW 4 9 2 5 1018.3 1018.3 5.8
20/12:00am 18.3 18.4 14.0 76 2.5 S 6 11 3 6 1018.5 1018.5 5.8
 
Date/Time
EST
Temp
°C
App
Temp
°C
Dew
Point
°C
Rel
Hum
%
Delta-T
°C
Wind Press
QNH
hPa
Press
MSL
hPa
Rain since
9am
mm
Dir  Spd
km/h
Gust
km/h
Spd
kts
Gust
kts
19/11:30pm 18.7 19.0 14.4 76 2.5 S 6 9 3 5 1018.7 1018.7 5.8
19/11:00pm 18.7 19.4 14.6 77 2.4 S 4 9 2 5 1019.1 1019.1 5.8
19/10:30pm 18.4 19.1 14.5 78 2.3 S 4 9 2 5 1019.1 1019.1 5.8
19/10:00pm 18.7 19.4 14.6 77 2.4 S 4 7 2 4 1019.3 1019.3 5.8
19/09:30pm 18.4 19.3 14.1 76 2.5 S 2 6 1 3 1019.5 1019.5 5.8
19/09:00pm 18.9 19.9 14.2 74 2.7 SSW 2 4 1 2 1019.7 1019.7 5.8
19/08:30pm 19.3 20.4 14.6 74 2.7 SSE 2 6 1 3 1019.6 1019.6 5.8
19/08:00pm 19.6 20.6 14.4 72 3.0 SE 2 4 1 2 1019.3 1019.3 5.8
19/07:30pm 20.2 21.3 14.6 70 3.3 SE 2 4 1 2 1018.9 1018.9 5.8
19/07:00pm 20.7 21.4 14.4 67 3.7 ESE 4 7 2 4 1018.7 1018.7 5.8
19/06:30pm 20.9 21.1 14.1 65 3.9 ESE 6 13 3 7 1018.6 1018.6 5.8
19/06:00pm 20.9 21.1 14.3 66 3.8 SE 6 11 3 6 1018.3 1018.3 5.8
19/05:30pm 20.8 20.9 14.0 65 3.9 ESE 6 11 3 6 1017.9 1017.9 5.8
19/05:00pm 20.6 20.1 12.6 60 4.5 ESE 7 15 4 8 1017.4 1017.4 5.8
19/04:30pm 23.6 22.5 13.2 52 6.0 ESE 11 19 6 10 1017.0 1017.0 5.8
19/04:00pm 23.8 23.3 15.0 57 5.2 ESE 11 20 6 11 1016.9 1016.9 5.8
19/03:30pm 22.6 21.9 14.4 60 4.8 E 11 19 6 10 1017.0 1017.0 5.8
19/03:00pm 22.1 21.7 15.2 65 4.1 ESE 11 24 6 13 1017.2 1017.2 5.8
19/02:30pm 21.6 23.8 18.4 82 2.0 SW 4 6 2 3 1017.5 1017.5 5.8
19/02:00pm 20.3 21.9 16.9 81 2.1 SW 4 9 2 5 1017.9 1017.9 5.6
19/01:30pm 19.6 20.9 17.0 85 1.6 E 6 9 3 5 1018.2 1018.2 5.6
19/01:00pm 21.4 23.7 16.8 75 2.8 CALM 0 4 0 2 1018.2 1018.2 2.6
19/12:30pm 20.2 20.4 15.8 76 2.6 E 9 20 5 11 1018.3 1018.3 2.6
19/12:00pm 20.8 23.8 18.4 86 1.5 CALM 0 0 0 0 1018.3 1018.3 2.6
19/11:30am 19.4 19.8 16.4 83 1.8 E 9 15 5 8 1018.9 1018.9 2.2
19/11:00am 19.0 20.3 16.2 84 1.7 NE 4 7 2 4 1019.1 1019.1 2.0
19/10:30am 17.9 17.4 15.0 83 1.7 E 11 26 6 14 1019.1 1019.1 2.0
19/10:00am 22.3 23.4 17.2 73 3.1 S 7 15 4 8 1018.7 1018.7 0.2
19/09:30am 21.3 22.8 17.5 79 2.3 SSE 6 13 3 7 1018.5 1018.5 0.2
19/09:00am 21.5 20.8 14.4 64 4.1 ESE 11 20 6 11 1018.4 1018.4 28.4
19/08:30am 24.1 24.7 16.9 64 4.4 E 9 17 5 9 1018.0 1018.0 28.2
19/08:00am 22.4 23.4 16.4 69 3.6 S 6 11 3 6 1017.8 1017.8 28.2
19/07:30am 20.9 22.0 16.5 76 2.7 SSW 6 13 3 7 1017.8 1017.8 28.2
19/07:00am 19.7 20.6 16.2 80 2.1 SW 6 9 3 5 1017.4 1017.4 28.2
19/06:30am 19.1 20.5 16.3 84 1.7 SSW 4 7 2 4 1016.9 1016.9 28.2
19/06:00am 17.6 18.9 16.1 91 0.9 WSW 4 6 2 3 1016.4 1016.4 28.2
19/05:30am 16.5 17.6 15.7 95 0.5 WSW 4 7 2 4 1016.3 1016.3 28.2
19/05:00am 16.1 17.1 15.3 95 0.5 WSW 4 7 2 4 1016.1 1016.1 28.2
19/04:30am 16.2 17.5 15.2 94 0.6 SSE 2 6 1 3 1015.6 1015.6 28.2
19/04:00am 16.3 17.4 15.5 95 0.5 S 4 6 2 3 1015.6 1015.6 28.2
19/03:30am 16.3 17.7 15.5 95 0.5 SW 2 6 1 3 1015.6 1015.6 28.2
19/03:00am 16.5 17.6 15.7 95 0.5 WSW 4 6 2 3 1015.8 1015.8 28.2
19/02:30am 16.5 17.6 15.7 95 0.5 WSW 4 6 2 3 1015.8 1015.8 28.2
19/02:00am 16.6 17.8 15.8 95 0.5 SW 4 9 2 5 1015.8 1015.8 28.2
19/01:30am 16.7 18.0 16.1 96 0.4 SW 4 6 2 3 1016.0 1016.0 28.2
19/01:00am 16.7 18.3 15.9 95 0.5 SW 2 6 1 3 1016.0 1016.0 28.2
19/12:30am 16.8 18.3 15.8 94 0.6 WSW 2 6 1 3 1016.3 1016.3 28.2
19/12:00am 17.1 18.8 16.1 94 0.6 SW 2 6 1 3 1016.8 1016.8 28.2
 
Date/Time
EST
Temp
°C
App
Temp
°C
Dew
Point
°C
Rel
Hum
%
Delta-T
°C
Wind Press
QNH
hPa
Press
MSL
hPa
Rain since
9am
mm
Dir  Spd
km/h
Gust
km/h
Spd
kts
Gust
kts
18/11:30pm 17.1 18.4 16.1 94 0.6 SSW 4 7 2 4 1017.3 1017.3 28.2
18/11:00pm 17.2 18.5 16.1 93 0.6 SW 4 6 2 3 1017.6 1017.6 28.2
18/10:30pm 17.4 19.1 16.3 93 0.7 SW 2 6 1 3 1017.7 1017.7 28.0
18/10:00pm 17.3 18.5 16.0 92 0.8 SW 4 7 2 4 1017.8 1017.8 28.0
18/09:30pm 17.5 18.9 16.4 93 0.7 SW 4 7 2 4 1017.8 1017.8 28.0
18/09:00pm 17.6 19.3 16.1 91 0.9 SSW 2 7 1 4 1017.7 1017.7 28.0
18/08:30pm 17.8 19.2 16.3 91 0.9 SSW 4 7 2 4 1018.0 1018.0 28.0
18/08:00pm 18.0 19.9 16.7 92 0.8 SSW 2 6 1 3 1018.1 1018.1 28.0
18/07:30pm 18.0 19.5 16.7 92 0.8 SSW 4 9 2 5 1017.8 1017.8 28.0
18/07:00pm 18.3 19.9 17.0 92 0.8 SSW 4 11 2 6 1017.5 1017.5 28.0
18/06:30pm 18.2 19.8 16.9 92 0.8 WSW 4 7 2 4 1017.3 1017.3 28.0
18/06:00pm 18.3 19.9 16.8 91 0.9 SW 4 7 2 4 1016.9 1016.9 28.0
18/05:30pm 18.4 19.6 16.9 91 0.9 WSW 6 7 3 4 1016.5 1016.5 28.0
18/05:00pm 18.5 20.6 17.2 92 0.8 WSW 2 6 1 3 1016.3 1016.3 27.8
18/04:30pm 18.4 20.1 17.1 92 0.8 SSW 4 7 2 4 1016.2 1016.2 27.2
18/04:00pm 18.5 20.5 17.0 91 0.9 SW 2 6 1 3 1016.0 1016.0 26.6
18/03:30pm 18.3 19.9 16.8 91 0.9 SSE 4 7 2 4 1016.1 1016.1 26.4
18/03:00pm 18.6 21.0 17.1 91 0.9 CALM 0 2 0 1 1015.9 1015.9 25.6
18/02:30pm 18.3 19.7 16.3 88 1.2 N 4 9 2 5 1016.0 1016.0 24.2
18/02:00pm 18.0 18.9 16.7 92 0.8 NE 7 13 4 7 1016.4 1016.4 23.4
18/01:30pm 18.1 19.9 17.3 95 0.5 ENE 4 6 2 3 1016.7 1016.7 21.4
18/01:00pm 18.0 18.3 16.9 93 0.7 E 11 19 6 10 1016.9 1016.9 13.4
18/12:30pm 18.6 19.4 16.4 87 1.3 E 7 13 4 7 1016.9 1016.9 8.0
18/12:00pm 19.9 21.3 17.3 85 1.6 NNW 6 11 3 6 1016.6 1016.6 6.8
18/11:30am 19.8 21.0 17.4 86 1.5 NW 7 15 4 8 1016.9 1016.9 6.8
18/11:00am 19.9 22.6 18.6 92 0.8 ENE 2 4 1 2 1017.0 1017.0 6.8
18/10:30am 18.8 21.0 17.5 92 0.8 S 2 4 1 2 1017.1 1017.1 6.8
18/10:00am 18.6 19.6 16.8 89 1.1 ESE 7 13 4 7 1017.0 1017.0 3.0
18/09:30am 18.9 20.0 17.2 90 1.0 ESE 7 13 4 7 1017.2 1017.2 0.8
18/09:00am 19.4 21.7 17.7 90 1.0 S 2 7 1 4 1017.3 1017.3 9.0
18/08:30am 19.3 21.7 18.0 92 0.8 WSW 2 6 1 3 1017.3 1017.3 8.8
18/08:00am 19.2 20.6 17.7 91 0.9 W 7 9 4 5 1017.4 1017.4 7.6
18/07:30am 19.3 21.4 17.3 88 1.2 SW 2 7 1 4 1017.5 1017.5 7.4
18/07:00am 19.2 21.0 17.5 90 1.0 SW 4 9 2 5 1017.4 1017.4 7.4
18/06:30am 18.8 20.2 17.3 91 0.9 W 6 9 3 5 1017.2 1017.2 7.4
18/06:00am 18.5 20.1 17.0 91 0.9 WSW 4 9 2 5 1016.9 1016.9 7.4
18/05:30am 18.0 19.3 16.2 89 1.1 SSE 4 6 2 3 1016.7 1016.7 7.4
18/05:00am 18.1 19.0 16.1 88 1.2 E 6 13 3 7 1016.7 1016.7 3.8
18/04:30am 19.1 21.1 16.9 87 1.3 S 2 4 1 2 1016.2 1016.2 0.0
18/04:00am 19.5 21.2 16.2 81 2.0 SSW 2 7 1 4 1016.1 1016.1 0.0
18/03:30am 20.0 21.6 16.0 78 2.4 S 2 7 1 4 1016.1 1016.1 0.0
18/03:00am 20.1 22.1 16.1 78 2.4 CALM 0 2 0 1 1016.0 1016.0 0.0
18/02:30am 19.7 21.5 15.6 77 2.4 CALM 0 0 0 0 1015.9 1015.9 0.0
18/02:00am 19.8 21.2 15.4 76 2.6 ESE 2 4 1 2 1015.8 1015.8 0.0
18/01:30am 19.6 21.2 14.8 74 2.8 CALM 0 2 0 1 1015.9 1015.9 0.0
18/01:00am 20.1 20.9 14.9 72 3.0 E 4 6 2 3 1016.1 1016.1 0.0
18/12:30am 19.8 20.6 14.8 73 2.9 E 4 6 2 3 1016.2 1016.2 0.0
18/12:00am 19.8 20.5 14.6 72 3.0 ESE 4 6 2 3 1016.8 1016.8 0.0
 
Date/Time
EST
Temp
°C
App
Temp
°C
Dew
Point
°C
Rel
Hum
%
Delta-T
°C
Wind Press
QNH
hPa
Press
MSL
hPa
Rain since
9am
mm
Dir  Spd
km/h
Gust
km/h
Spd
kts
Gust
kts
17/11:30pm 20.2 20.9 14.6 70 3.3 ESE 4 6 2 3 1017.1 1017.1 0.0
17/11:00pm 20.3 21.0 14.4 69 3.4 E 4 6 2 3 1017.5 1017.5 0.0
17/10:30pm 20.7 21.0 14.6 68 3.6 ESE 6 7 3 4 1017.6 1017.6 0.0
17/10:00pm 20.9 21.7 14.8 68 3.6 ESE 4 6 2 3 1017.8 1017.8 0.0
17/09:30pm 20.9 21.6 14.5 67 3.7 E 4 7 2 4 1017.9 1017.9 0.0
17/09:00pm 21.0 21.7 14.6 67 3.7 E 4 6 2 3 1017.5 1017.5 0.0
17/08:30pm 21.2 21.5 14.4 65 4.0 E 6 7 3 4 1017.6 1017.6 0.0
17/08:00pm 21.1 21.5 13.8 63 4.2 E 4 9 2 5 1017.2 1017.2 0.0
17/07:30pm 21.6 21.5 13.8 61 4.5 E 7 11 4 6 1016.9 1016.9 0.0
17/07:00pm 22.0 21.5 13.9 60 4.7 E 9 13 5 7 1016.8 1016.8 0.0
17/06:30pm 22.4 22.4 14.3 60 4.7 ENE 7 15 4 8 1016.9 1016.9 0.0
17/06:00pm 22.7 21.9 14.0 58 5.1 ENE 11 20 6 11 1016.5 1016.5 0.0
17/05:30pm 23.5 22.2 13.7 54 5.7 ENE 13 20 7 11 1015.9 1015.9 0.0
17/05:00pm 23.6 22.4 14.0 55 5.6 ENE 13 24 7 13 1015.8 1015.8 0.0
17/04:30pm 24.1 23.4 14.2 54 5.8 ENE 11 19 6 10 1015.9 1015.9 0.0
17/04:00pm 23.8 22.1 13.6 52 5.9 NE 15 24 8 13 1016.0 1016.0 0.0
17/03:30pm 24.9 23.2 13.5 49 6.7 ENE 15 30 8 16 1016.1 1016.1 0.0
17/03:00pm 25.6 24.5 14.4 50 6.7 ENE 13 19 7 10 1016.5 1016.5 0.0
17/02:30pm 25.4 24.5 13.6 48 6.9 ENE 11 22 6 12 1016.7 1016.7 0.0
17/02:00pm 25.3 24.3 13.5 48 6.9 NE 11 20 6 11 1017.1 1017.1 0.0
17/01:30pm 26.0 24.7 13.8 47 7.2 ENE 13 20 7 11 1017.3 1017.3 0.0
17/01:00pm 26.2 25.5 14.3 48 7.1 ENE 11 20 6 11 1017.5 1017.5 0.0
17/12:30pm 25.5 24.0 13.0 46 7.3 NE 13 22 7 12 1017.6 1017.6 0.0
17/12:00pm 25.9 23.7 12.0 42 8.0 ENE 15 22 8 12 1017.8 1017.8 0.0
17/11:30am 26.4 25.2 12.8 43 7.9 ENE 11 22 6 12 1018.1 1018.1 0.0
17/11:00am 26.0 25.4 14.5 49 6.9 NE 11 17 6 9 1018.2 1018.2 0.0
17/10:30am 25.3 25.0 14.4 50 6.5 NE 9 17 5 9 1018.4 1018.4 0.0
17/10:00am 24.9 25.0 14.4 52 6.2 ENE 7 17 4 9 1018.6 1018.6 0.0

Latest Capital City Observations: Canberra | Sydney | Melbourne | Brisbane | Adelaide | Perth | Hobart | Darwin

Other Formats:

Comma delimited format used in spreadsheet applications
http://www.bom.gov.au/fwo/IDQ60901/IDQ60901.94576.axf

JavaScript Object Notation format (JSON) in row-major order
http://www.bom.gov.au/fwo/IDQ60901/IDQ60901.94576.json